Time;durP1;ratioP1;P1;durP2;ratioP2;P2;SDS_P1;SDS_P2;PMS_P1;PMS_P2;Temp;Humidity;BMP_temperature;BMP_pressure;BME280_temperature;BME280_humidity;BME280_pressure;Samples;Min_cycle;Max_cycle;Signal;HPM_P1;HPM_P2
2021/09/04 00:02:19;;;;;;;11.63;8.40;;;;;;;23.18;59.51;100958.91;5024659;28;20544;-63
2021/09/04 00:04:47;;;;;;;19.67;9.35;;;;;;;23.03;58.87;100956.41;5024256;28;20242;-64
2021/09/04 00:07:18;;;;;;;18.92;9.30;;;;;;;22.88;59.22;100960.28;5022937;28;20069;-62
2021/09/04 00:09:46;;;;;;;16.85;9.65;;;;;;;22.92;59.51;100964.75;5000635;28;20054;-59
2021/09/04 00:12:13;;;;;;;15.23;10.02;;;;;;;22.93;58.50;100960.72;5017302;28;20062;-61
2021/09/04 00:14:41;;;;;;;13.48;9.55;;;;;;;23.03;58.43;100968.41;5025778;28;20045;-60
2021/09/04 00:17:09;;;;;;;16.17;9.55;;;;;;;23.01;58.41;100968.00;5032461;28;20381;-60
2021/09/04 00:19:37;;;;;;;13.30;8.73;;;;;;;23.28;57.52;100971.41;5018101;28;20061;-64
2021/09/04 00:22:04;;;;;;;14.85;9.88;;;;;;;23.14;57.04;100962.88;5027974;28;20497;-64
2021/09/04 00:24:32;;;;;;;13.13;9.48;;;;;;;23.12;57.35;100965.25;5025780;28;20060;-64
2021/09/04 00:26:59;;;;;;;16.40;9.25;;;;;;;23.05;57.54;100970.84;5022344;28;20065;-63
2021/09/04 00:29:27;;;;;;;14.68;9.90;;;;;;;22.99;57.58;100969.59;5017909;28;20085;-64
2021/09/04 00:31:56;;;;;;;14.85;9.98;;;;;;;22.98;57.35;100968.78;5024180;28;20045;-64
2021/09/04 00:34:23;;;;;;;12.68;9.75;;;;;;;23.23;57.19;100963.34;5026992;28;20046;-63
2021/09/04 00:36:51;;;;;;;14.65;10.10;;;;;;;22.92;57.40;100967.56;5027239;28;20045;-64
2021/09/04 00:39:18;;;;;;;15.85;10.70;;;;;;;22.68;58.37;100965.38;5016891;28;20053;-63
2021/09/04 00:41:45;;;;;;;15.60;10.07;;;;;;;22.30;59.11;100963.78;5019107;28;20540;-62
2021/09/04 00:44:17;;;;;;;16.08;10.18;;;;;;;22.33;59.58;100953.81;5022454;28;20046;-64
2021/09/04 00:46:44;;;;;;;16.25;9.95;;;;;;;22.75;58.52;100956.19;5020385;28;20065;-59
2021/09/04 00:49:12;;;;;;;14.13;9.13;;;;;;;22.46;59.16;100954.28;5028124;28;20037;-59
2021/09/04 00:51:39;;;;;;;14.40;10.18;;;;;;;22.29;59.72;100958.56;5019383;28;20598;-64
2021/09/04 00:54:07;;;;;;;13.07;9.45;;;;;;;22.12;60.34;100948.78;5031603;28;20068;-63
2021/09/04 00:56:37;;;;;;;15.10;9.75;;;;;;;22.57;59.32;100947.63;5024396;28;20038;-63
2021/09/04 00:59:09;;;;;;;12.25;8.80;;;;;;;22.35;60.00;100952.22;5024698;28;20045;-60
2021/09/04 01:01:36;;;;;;;13.98;9.45;;;;;;;22.48;59.99;100955.53;5020090;28;20701;-60
2021/09/04 01:04:04;;;;;;;16.33;9.40;;;;;;;22.53;59.80;100957.16;5026972;28;20057;-60
2021/09/04 01:06:31;;;;;;;15.50;9.18;;;;;;;22.56;59.51;100960.03;5024674;28;20045;-59
2021/09/04 01:08:59;;;;;;;11.75;8.75;;;;;;;22.52;59.65;100959.19;5034629;28;20053;-60
2021/09/04 01:11:27;;;;;;;13.90;9.57;;;;;;;21.88;61.46;100954.94;5016318;28;20516;-60
2021/09/04 01:13:55;;;;;;;14.93;8.70;;;;;;;21.60;62.58;100954.56;5030246;28;20049;-61
2021/09/04 01:16:22;;;;;;;13.73;9.30;;;;;;;21.73;62.43;100949.50;5022923;28;20057;-60
2021/09/04 01:18:50;;;;;;;11.98;8.25;;;;;;;21.88;62.10;100949.31;5031858;28;20054;-64
2021/09/04 01:21:17;;;;;;;13.98;8.38;;;;;;;21.46;63.06;100954.41;5032121;28;20049;-63
2021/09/04 01:23:45;;;;;;;14.15;9.55;;;;;;;21.14;64.18;100953.97;5026361;28;20058;-64
2021/09/04 01:26:12;;;;;;;14.48;8.65;;;;;;;20.99;64.80;100948.56;5019440;28;20041;-63
2021/09/04 01:28:40;;;;;;;13.25;9.48;;;;;;;20.99;64.94;100951.34;5021236;28;20053;-63
2021/09/04 01:31:07;;;;;;;13.38;8.95;;;;;;;21.10;64.55;100955.09;5033350;28;20084;-64
2021/09/04 01:33:42;;;;;;;15.40;9.95;;;;;;;20.86;65.52;100944.31;5021312;28;20054;-64
2021/09/04 01:36:11;;;;;;;13.80;9.70;;;;;;;21.04;64.98;100948.22;5016073;28;20050;-64
2021/09/04 01:38:38;;;;;;;16.63;9.10;;;;;;;21.24;64.46;100952.50;5014670;28;20058;-60
2021/09/04 01:41:06;;;;;;;12.75;9.20;;;;;;;21.02;65.06;100950.59;5018791;28;20697;-63
2021/09/04 01:43:33;;;;;;;20.05;10.27;;;;;;;21.41;64.36;100945.53;5027344;28;20054;-66
2021/09/04 01:46:01;;;;;;;15.02;10.05;;;;;;;21.36;64.24;100952.25;5014524;28;20046;-63
2021/09/04 01:48:32;;;;;;;18.38;9.60;;;;;;;21.57;63.15;100943.31;5013244;28;20058;-65
2021/09/04 01:50:59;;;;;;;19.23;9.65;;;;;;;21.39;63.77;100965.53;5022816;28;20037;-60
2021/09/04 01:53:26;;;;;;;15.98;9.80;;;;;;;21.56;63.36;100953.75;5030900;28;20056;-60
2021/09/04 01:55:54;;;;;;;12.52;9.60;;;;;;;21.40;63.45;100960.72;5014892;28;20041;-60
2021/09/04 01:58:21;;;;;;;15.70;9.75;;;;;;;21.60;63.57;100965.78;5030502;28;20053;-60
2021/09/04 02:00:48;;;;;;;17.08;9.50;;;;;;;21.88;62.66;100948.53;5022724;28;20064;-61
2021/09/04 02:03:16;;;;;;;19.92;10.18;;;;;;;21.70;62.33;100947.50;5032790;28;20064;-60
2021/09/04 02:05:44;;;;;;;18.02;10.13;;;;;;;21.61;62.60;100942.19;5023076;28;20082;-61
2021/09/04 02:08:12;;;;;;;15.48;9.95;;;;;;;21.43;63.65;100945.97;5022987;28;20041;-61
2021/09/04 02:10:39;;;;;;;15.55;9.77;;;;;;;21.66;63.26;100941.84;5030022;28;20057;-60
2021/09/04 02:13:06;;;;;;;13.60;10.43;;;;;;;21.91;62.24;100940.16;5011353;28;20053;-61
2021/09/04 02:15:35;;;;;;;20.05;10.43;;;;;;;22.00;61.83;100940.63;5046733;28;20065;-60
2021/09/04 02:18:02;;;;;;;13.45;10.27;;;;;;;22.13;61.71;100929.94;5013780;28;20501;-63
2021/09/04 02:20:31;;;;;;;17.08;9.77;;;;;;;21.76;61.96;100935.53;5014263;28;20054;-60
2021/09/04 02:23:00;;;;;;;14.52;9.55;;;;;;;22.05;62.22;100936.69;5015658;28;20054;-59
2021/09/04 02:25:27;;;;;;;15.43;9.60;;;;;;;22.09;61.68;100929.09;5031906;28;20512;-63
2021/09/04 02:27:57;;;;;;;21.05;10.70;;;;;;;22.15;61.50;100935.97;5027330;28;20050;-64
2021/09/04 02:30:25;;;;;;;15.88;9.85;;;;;;;22.17;61.21;100928.81;5030427;28;20052;-63
2021/09/04 02:32:52;;;;;;;13.77;9.98;;;;;;;22.14;61.41;100923.94;5014977;28;20053;-63
2021/09/04 02:35:20;;;;;;;16.85;10.27;;;;;;;21.52;62.71;100924.03;5033394;28;20527;-64
2021/09/04 02:37:47;;;;;;;16.20;10.13;;;;;;;21.61;63.21;100938.56;5026061;28;20041;-63
2021/09/04 02:40:15;;;;;;;15.32;9.77;;;;;;;21.82;62.77;100931.25;5033076;28;20410;-60
2021/09/04 02:42:44;;;;;;;13.63;9.52;;;;;;;21.94;62.26;100927.34;5029251;28;20382;-60
2021/09/04 02:45:14;;;;;;;19.50;10.50;;;;;;;22.00;61.62;100932.22;5033315;28;20049;-61
2021/09/04 02:47:41;;;;;;;13.70;10.35;;;;;;;;;;4998633;28;20095;-60
2021/09/04 02:50:09;;;;;;;13.43;9.95;;;;;;;21.73;62.56;100938.31;5020722;28;20160;-59
2021/09/04 02:52:37;;;;;;;19.48;10.10;;;;;;;21.52;62.69;100932.44;5022219;28;20657;-59
2021/09/04 02:55:05;;;;;;;14.60;10.35;;;;;;;21.41;63.62;100940.72;5033194;28;20105;-64
2021/09/04 02:57:33;;;;;;;16.75;9.82;;;;;;;21.48;63.77;100938.00;5019590;28;20054;-63
2021/09/04 03:00:04;;;;;;;14.38;10.02;;;;;;;21.90;62.65;100926.50;5013169;28;20058;-63
2021/09/04 03:02:32;;;;;;;14.60;9.52;;;;;;;21.86;62.47;100937.69;5013488;28;20533;-63
2021/09/04 03:05:01;;;;;;;12.25;9.45;;;;;;;22.00;62.03;100935.03;5026651;28;20463;-63
2021/09/04 03:07:29;;;;;;;13.93;9.70;;;;;;;22.07;62.26;100935.09;5017812;28;20053;-62
2021/09/04 03:09:56;;;;;;;13.15;9.07;;;;;;;22.20;61.74;100933.63;5018391;28;20076;-63
2021/09/04 03:12:24;;;;;;;13.48;9.63;;;;;;;22.20;62.15;100930.84;5034639;28;20054;-61
2021/09/04 03:14:52;;;;;;;13.55;9.38;;;;;;;22.01;62.85;100930.22;5031844;28;20045;-64
2021/09/04 03:17:20;;;;;;;13.65;9.57;;;;;;;21.92;63.29;100933.34;5031547;28;20050;-63
2021/09/04 03:19:49;;;;;;;11.95;9.23;;;;;;;21.95;63.15;100926.19;5022089;28;20061;-63
2021/09/04 03:22:18;;;;;;;14.40;9.02;;;;;;;22.00;62.95;100929.41;5024684;28;20513;-64
2021/09/04 03:24:45;;;;;;;15.30;9.65;;;;;;;21.83;63.12;100918.00;5016897;28;20042;-64
2021/09/04 03:27:13;;;;;;;17.05;9.38;;;;;;;21.84;63.75;100916.84;5022349;28;20054;-62
2021/09/04 03:29:41;;;;;;;15.00;9.98;;;;;;;21.82;63.62;100922.84;5033189;28;20042;-60
2021/09/04 03:32:08;;;;;;;15.65;9.50;;;;;;;21.94;63.39;100925.34;5033301;28;20057;-60
2021/09/04 03:34:37;;;;;;;14.30;9.73;;;;;;;22.14;62.48;100928.78;5035351;28;20196;-59
2021/09/04 03:37:06;;;;;;;15.32;9.93;;;;;;;22.30;60.76;100920.88;5035248;28;20045;-61
2021/09/04 03:39:35;;;;;;;12.77;9.68;;;;;;;21.81;62.54;100926.03;5023295;28;20736;-61
2021/09/04 03:42:04;;;;;;;;;;;;;;;22.13;61.17;100927.13;5023541;28;20062;-64
2021/09/04 03:44:32;;;;;;;12.63;8.85;;;;;;;22.01;61.88;100924.63;5018246;28;19932;-60
2021/09/04 03:46:59;;;;;;;11.23;8.70;;;;;;;21.94;62.60;100932.97;5033580;28;20049;-64
2021/09/04 03:49:27;;;;;;;16.38;9.10;;;;;;;21.98;62.71;100925.41;5036009;28;20052;-61
2021/09/04 03:51:55;;;;;;;16.60;9.18;;;;;;;21.89;62.47;100922.91;5018276;28;20050;-63
2021/09/04 03:54:23;;;;;;;14.68;9.25;;;;;;;22.02;62.25;100926.25;5030031;28;20056;-60
2021/09/04 03:56:55;;;;;;;12.82;8.48;;;;;;;21.99;61.77;100933.41;5024673;28;20041;-60
2021/09/04 03:59:22;;;;;;;12.90;9.27;;;;;;;21.97;61.87;100924.59;5035477;28;20053;-61
2021/09/04 04:01:51;;;;;;;13.25;8.80;;;;;;;21.97;61.88;100924.59;5028588;28;20147;-61
2021/09/04 04:04:19;;;;;;;13.95;9.30;;;;;;;21.76;61.94;100927.13;5016318;28;20073;-64
2021/09/04 04:06:47;;;;;;;14.27;8.52;;;;;;;21.86;61.66;100920.84;5019955;28;20555;-60
2021/09/04 04:09:15;;;;;;;13.27;9.23;;;;;;;21.85;61.14;100915.63;5034854;28;20061;-62
2021/09/04 04:11:43;;;;;;;14.02;8.88;;;;;;;21.88;61.53;100915.66;5034424;28;20049;-61
2021/09/04 04:14:11;;;;;;;20.63;9.93;;;;;;;21.74;61.86;100917.50;5052766;28;20053;-60
2021/09/04 04:16:38;;;;;;;14.73;9.40;;;;;;;;;;5030967;28;20061;-60
2021/09/04 04:19:05;;;;;;;12.50;9.43;;;;;;;21.83;61.75;100909.59;5028321;28;20046;-60
2021/09/04 04:21:33;;;;;;;17.23;10.52;;;;;;;21.38;62.20;100909.84;5018954;28;20056;-64
2021/09/04 04:24:00;;;;;;;15.13;10.07;;;;;;;21.12;63.27;100924.72;4983538;28;20061;-60
2021/09/04 04:26:28;;;;;;;15.07;9.90;;;;;;;20.99;64.31;100915.72;5027884;28;20042;-61
2021/09/04 04:28:55;;;;;;;18.95;9.43;;;;;;;21.24;63.48;100916.88;5017263;28;20048;-60
2021/09/04 04:31:23;;;;;;;14.63;10.15;;;;;;;21.40;63.61;100908.28;5019925;28;20045;-60
2021/09/04 04:33:50;;;;;;;15.23;9.55;;;;;;;21.51;62.62;100914.84;5026725;28;20057;-59
2021/09/04 04:36:18;;;;;;;11.35;9.48;;;;;;;21.40;63.00;100913.88;5002155;28;20496;-59
2021/09/04 04:38:46;;;;;;;15.60;10.25;;;;;;;21.33;63.39;100910.19;5033583;28;20045;-60
2021/09/04 04:41:14;;;;;;;16.38;10.10;;;;;;;21.36;63.01;100910.22;5032803;28;20064;-60
2021/09/04 04:43:41;;;;;;;14.63;10.40;;;;;;;21.22;63.22;100910.03;5026433;28;20061;-59
2021/09/04 04:46:09;;;;;;;12.60;9.82;;;;;;;21.08;64.05;100921.03;5023089;28;20057;-61
2021/09/04 04:48:40;;;;;;;14.80;10.52;;;;;;;21.35;63.83;100917.03;5034360;28;20049;-60
2021/09/04 04:51:07;;;;;;;15.07;10.60;;;;;;;20.85;64.54;100921.09;5032838;28;20041;-61
2021/09/04 04:53:36;;;;;;;14.82;10.05;;;;;;;21.02;64.69;100922.59;5032524;28;20037;-60
2021/09/04 04:56:05;;;;;;;13.75;9.05;;;;;;;21.44;63.76;100914.75;5030725;28;20029;-60
2021/09/04 04:58:33;;;;;;;13.52;9.90;;;;;;;21.65;62.73;100917.00;5046934;28;20046;-60
2021/09/04 05:01:01;;;;;;;12.60;9.52;;;;;;;21.72;62.63;100917.88;5018862;28;20057;-64
2021/09/04 05:03:29;;;;;;;14.52;9.48;;;;;;;21.75;62.52;100916.28;5014109;28;20057;-63
2021/09/04 05:05:57;;;;;;;16.88;9.38;;;;;;;21.74;62.39;100925.91;5016466;28;20061;-60
2021/09/04 05:08:24;;;;;;;14.13;9.82;;;;;;;;;;5034162;28;20060;-65
2021/09/04 05:10:52;;;;;;;16.00;9.95;;;;;;;21.63;62.50;100922.16;5026995;28;20394;-64
2021/09/04 05:13:20;;;;;;;14.90;10.10;;;;;;;21.62;62.00;100924.16;5041061;28;20053;-64
2021/09/04 05:15:49;;;;;;;13.77;9.30;;;;;;;21.67;62.51;100923.03;5022241;28;20053;-60
2021/09/04 05:18:17;;;;;;;16.15;9.35;;;;;;;21.65;62.77;100922.59;5033871;28;20045;-60
2021/09/04 05:20:46;;;;;;;14.10;9.95;;;;;;;21.72;62.82;100929.09;5013592;28;20058;-61
2021/09/04 05:23:14;;;;;;;11.50;9.13;;;;;;;21.87;61.93;100933.69;5030314;28;20050;-62
2021/09/04 05:25:41;;;;;;;14.70;10.27;;;;;;;21.46;61.98;100937.59;5033007;28;20057;-64
2021/09/04 05:28:08;;;;;;;13.43;10.00;;;;;;;21.42;62.97;100942.34;5023383;28;20057;-65
2021/09/04 05:30:36;;;;;;;12.55;9.55;;;;;;;21.38;62.92;100933.06;5029226;28;20069;-60
2021/09/04 05:33:03;;;;;;;15.15;9.55;;;;;;;21.59;63.09;100930.53;5019280;28;20057;-60
2021/09/04 05:35:30;;;;;;;13.45;9.60;;;;;;;21.74;62.53;100926.69;5031080;28;20045;-60
2021/09/04 05:37:57;;;;;;;15.82;10.02;;;;;;;21.86;62.61;100929.25;5026478;28;20109;-65
2021/09/04 05:40:25;;;;;;;19.30;10.90;;;;;;;21.70;61.49;100930.66;5016568;28;20390;-64
2021/09/04 05:42:52;;;;;;;19.35;10.85;;;;;;;21.39;62.58;100943.13;5031382;28;20303;-60
2021/09/04 05:45:19;;;;;;;15.30;10.23;;;;;;;21.56;62.68;100936.91;5031491;28;20400;-64
2021/09/04 05:47:46;;;;;;;13.68;9.82;;;;;;;21.18;63.75;100942.81;5030663;28;20045;-60
2021/09/04 05:50:14;;;;;;;13.88;9.93;;;;;;;21.45;63.75;100941.56;5015581;28;20057;-60
2021/09/04 05:52:41;;;;;;;17.20;9.65;;;;;;;21.06;64.19;100940.25;5025136;28;20058;-60
2021/09/04 05:55:08;;;;;;;13.13;9.85;;;;;;;20.89;64.66;100946.34;5013616;28;20041;-61
2021/09/04 05:57:36;;;;;;;18.58;9.98;;;;;;;20.79;65.00;100952.59;5022129;28;20477;-60
2021/09/04 06:00:04;;;;;;;18.05;9.60;;;;;;;20.75;65.44;100948.94;5031998;28;20075;-60
2021/09/04 06:02:37;;;;;;;26.50;10.70;;;;;;;20.67;65.99;100959.22;5015308;28;20045;-61
2021/09/04 06:05:05;;;;;;;16.48;10.07;;;;;;;20.60;66.00;100955.50;5020345;28;20452;-65
2021/09/04 06:07:34;;;;;;;16.63;9.98;;;;;;;20.98;66.02;100960.88;5027000;28;20056;-62
2021/09/04 06:10:01;;;;;;;15.50;10.00;;;;;;;21.06;64.83;100963.44;5031317;28;20053;-61
2021/09/04 06:12:29;;;;;;;16.05;9.30;;;;;;;21.17;64.62;100958.81;5025928;28;20045;-61
2021/09/04 06:14:56;;;;;;;14.07;9.88;;;;;;;21.43;64.13;100969.16;5043765;28;20446;-61
2021/09/04 06:17:23;;;;;;;18.83;9.65;;;;;;;21.43;63.81;100966.38;5030032;28;20080;-61
2021/09/04 06:19:50;;;;;;;15.88;9.57;;;;;;;21.28;63.36;100967.38;5015810;28;20050;-61
2021/09/04 06:22:18;;;;;;;17.05;10.25;;;;;;;21.38;63.42;100968.69;5015639;28;20049;-65
2021/09/04 06:24:46;;;;;;;16.90;9.73;;;;;;;21.46;63.59;100971.22;5004824;28;20647;-66
2021/09/04 06:27:13;;;;;;;15.07;10.15;;;;;;;21.46;63.39;100971.22;5001954;28;20424;-65
2021/09/04 06:29:40;;;;;;;18.95;11.27;;;;;;;21.30;62.90;100975.41;5022390;28;20054;-64
2021/09/04 06:32:08;;;;;;;19.05;10.43;;;;;;;21.16;64.20;100974.03;5014535;28;20050;-64
2021/09/04 06:34:35;;;;;;;17.85;11.20;;;;;;;20.49;66.05;100971.28;5031016;28;20060;-66
2021/09/04 06:37:02;;;;;;;21.52;13.45;;;;;;;20.31;67.49;100962.59;5026664;28;20042;-64
2021/09/04 06:39:30;;;;;;;22.20;14.43;;;;;;;20.64;66.95;100973.16;5028990;28;20041;-64
2021/09/04 06:41:58;;;;;;;20.77;12.23;;;;;;;20.72;66.42;100970.09;5038748;28;20050;-62
2021/09/04 06:44:25;;;;;;;17.55;12.43;;;;;;;20.73;66.57;100976.53;5020188;28;20496;-63
2021/09/04 06:46:52;;;;;;;22.02;12.25;;;;;;;20.98;65.95;100975.75;5030312;28;20046;-58
2021/09/04 06:49:20;;;;;;;22.27;12.88;;;;;;;21.02;65.47;100973.00;5019004;28;20056;-57
2021/09/04 06:51:47;;;;;;;22.17;11.90;;;;;;;21.01;64.90;100971.38;5015205;28;20050;-56
2021/09/04 06:54:14;;;;;;;22.50;11.98;;;;;;;20.99;65.03;100970.97;5024597;28;20050;-57
2021/09/04 06:56:42;;;;;;;20.55;11.82;;;;;;;21.00;65.49;100976.19;5015746;28;20057;-56
2021/09/04 06:59:10;;;;;;;18.10;11.55;;;;;;;21.19;64.88;100975.25;5014781;28;20053;-59
2021/09/04 07:01:38;;;;;;;17.80;12.43;;;;;;;21.25;64.56;100971.72;5019994;28;20042;-55
2021/09/04 07:04:06;;;;;;;21.77;12.23;;;;;;;21.16;64.31;100974.03;5020566;28;20058;-58
2021/09/04 07:06:33;;;;;;;18.63;12.63;;;;;;;21.34;64.57;100968.63;5018355;28;20050;-57
2021/09/04 07:09:07;;;;;;;17.50;11.60;;;;;;;21.37;64.37;100972.69;5021980;28;20057;-58
2021/09/04 07:11:34;;;;;;;18.55;11.65;;;;;;;21.37;64.00;100972.69;5021051;28;20068;-58
2021/09/04 07:14:02;;;;;;;20.33;11.73;;;;;;;21.46;64.08;100973.22;5035694;28;20515;-58
2021/09/04 07:16:40;;;;;;;23.70;15.63;;;;;;;21.62;63.26;100977.44;5035993;28;20420;-60
2021/09/04 07:19:08;;;;;;;26.20;16.95;;;;;;;21.75;63.36;100970.38;5033393;28;20080;-56
2021/09/04 07:21:36;;;;;;;19.02;15.65;;;;;;;21.92;63.52;100971.81;5035546;28;20064;-57
2021/09/04 07:24:04;;;;;;;22.48;13.93;;;;;;;22.13;63.17;100966.41;5046177;28;20515;-59
2021/09/04 07:26:32;;;;;;;23.48;12.57;;;;;;;22.40;62.12;100967.91;5023247;28;20063;-61
2021/09/04 07:28:59;;;;;;;18.65;13.80;;;;;;;22.49;61.36;100961.97;5024563;28;20354;-61
2021/09/04 07:31:27;;;;;;;20.33;12.68;;;;;;;22.48;61.00;100958.34;5036110;28;20053;-61
2021/09/04 07:33:54;;;;;;;18.05;12.57;;;;;;;22.62;60.35;100972.53;5034188;28;20052;-60
2021/09/04 07:36:21;;;;;;;18.38;12.57;;;;;;;22.33;60.98;100965.03;5025772;28;20042;-60
2021/09/04 07:38:49;;;;;;;19.77;12.88;;;;;;;22.06;61.72;100971.97;5026068;28;20041;-60
2021/09/04 07:41:16;;;;;;;18.17;13.57;;;;;;;22.08;61.79;100970.41;5047341;28;20045;-60
2021/09/04 07:43:43;;;;;;;19.70;13.32;;;;;;;22.41;61.08;100974.31;5051234;28;20055;-62
2021/09/04 07:46:10;;;;;;;23.60;14.00;;;;;;;22.70;60.12;100976.22;5033104;28;20060;-60
2021/09/04 07:48:38;;;;;;;22.88;13.60;;;;;;;22.30;60.24;100974.19;5030185;28;20058;-60
2021/09/04 07:51:05;;;;;;;19.73;12.98;;;;;;;22.49;60.40;100984.44;5026587;28;20049;-59
2021/09/04 07:53:33;;;;;;;21.00;13.82;;;;;;;22.50;60.87;100967.19;5018743;28;20050;-61
2021/09/04 07:56:00;;;;;;;24.35;14.48;;;;;;;21.89;61.97;100976.19;5032228;28;20058;-59
2021/09/04 07:58:28;;;;;;;21.88;14.63;;;;;;;21.93;62.49;100979.81;5032740;28;20056;-60
2021/09/04 08:00:55;;;;;;;26.95;15.55;;;;;;;22.26;61.52;100976.97;5030666;28;20054;-61
2021/09/04 08:03:23;;;;;;;18.65;13.85;;;;;;;22.40;61.31;100975.50;5032698;28;20049;-60
2021/09/04 08:05:50;;;;;;;20.45;13.77;;;;;;;22.68;60.67;100978.59;5048389;28;20053;-60
2021/09/04 08:08:17;;;;;;;18.38;14.48;;;;;;;22.69;60.34;100978.22;5052673;28;20041;-61
2021/09/04 08:10:45;;;;;;;21.33;15.18;;;;;;;22.43;61.13;100977.53;5045688;28;20053;-62
2021/09/04 08:13:12;;;;;;;25.13;14.32;;;;;;;22.96;60.05;100978.81;5026849;28;20519;-61
2021/09/04 08:15:40;;;;;;;20.38;13.75;;;;;;;23.01;59.63;100972.84;5041992;28;20536;-60
2021/09/04 08:18:07;;;;;;;29.98;16.42;;;;;;;22.74;60.40;100975.03;5036190;28;20052;-60
2021/09/04 08:20:34;;;;;;;23.58;15.52;;;;;;;23.03;60.19;100979.66;5033129;28;20053;-61
2021/09/04 08:23:06;;;;;;;24.75;17.13;;;;;;;22.98;59.95;100977.22;5016252;28;20046;-61
2021/09/04 08:25:35;;;;;;;23.83;16.95;;;;;;;22.90;61.11;100969.13;5022227;28;20133;-60
2021/09/04 08:28:07;;;;;;;28.63;16.63;;;;;;;23.17;60.41;100974.13;5034381;28;20050;-60
2021/09/04 08:30:35;;;;;;;24.63;17.10;;;;;;;23.36;59.60;100985.13;5030781;28;20531;-59
2021/09/04 08:33:03;;;;;;;28.45;18.20;;;;;;;23.20;60.07;100995.03;5017315;28;20053;-61
2021/09/04 08:35:30;;;;;;;27.20;16.65;;;;;;;23.16;60.23;100995.03;5035210;28;20060;-61
2021/09/04 08:37:59;;;;;;;25.25;17.65;;;;;;;23.43;59.81;100995.63;5014107;28;20068;-59
2021/09/04 08:40:26;;;;;;;28.25;16.95;;;;;;;23.44;59.23;100988.78;5030469;28;20052;-58
2021/09/04 08:42:53;;;;;;;21.70;16.80;;;;;;;23.02;60.52;101002.53;5006528;28;20517;-54
2021/09/04 08:45:21;;;;;;;22.98;17.20;;;;;;;22.80;61.88;101001.59;5016501;28;20046;-57
2021/09/04 08:47:49;;;;;;;25.30;17.33;;;;;;;22.51;62.69;101007.31;5030245;28;20060;-57
2021/09/04 08:50:17;;;;;;;27.50;17.98;;;;;;;22.19;63.50;100999.34;5034214;28;20401;-58
2021/09/04 08:52:44;;;;;;;25.75;18.08;;;;;;;22.11;64.45;101003.28;5020852;28;20057;-63
2021/09/04 08:55:12;;;;;;;26.73;17.92;;;;;;;22.51;63.25;101002.47;5028213;28;20507;-63
2021/09/04 08:57:39;;;;;;;35.00;18.67;;;;;;;22.57;62.84;101003.78;5014588;28;20073;-64
2021/09/04 09:00:09;;;;;;;29.50;18.90;;;;;;;22.80;62.67;101000.78;5024053;28;20054;-59
2021/09/04 09:02:43;;;;;;;28.85;18.13;;;;;;;22.86;62.56;101007.63;5033601;28;20420;-61
2021/09/04 09:05:11;;;;;;;32.40;18.30;;;;;;;22.73;63.24;101011.94;5034154;28;20046;-61
2021/09/04 09:07:44;;;;;;;28.15;18.65;;;;;;;22.98;63.17;101007.34;5035169;28;20053;-60
2021/09/04 09:10:23;;;;;;;27.48;18.77;;;;;;;22.89;63.03;101010.47;5036216;28;20128;-61
2021/09/04 09:12:51;;;;;;;27.90;20.25;;;;;;;22.80;63.20;101012.81;5042258;28;20053;-61
2021/09/04 09:15:27;;;;;;;26.27;18.40;;;;;;;22.99;62.76;101009.75;5035384;28;20060;-61
2021/09/04 09:18:16;;;;;;;23.23;16.40;;;;;;;23.05;62.45;101013.00;5033641;28;20536;-60
2021/09/04 09:20:46;;;;;;;23.85;16.40;;;;;;;22.88;63.52;101017.28;5034824;28;20497;-62
2021/09/04 09:23:13;;;;;;;;;;;;;;;23.10;62.82;101010.63;5035488;28;20049;-61
2021/09/04 09:25:42;;;;;;;27.13;17.50;;;;;;;23.35;62.23;101010.81;5019502;28;19936;-65
2021/09/04 09:28:12;;;;;;;22.52;18.17;;;;;;;23.76;61.26;101015.06;5016290;28;20061;-61
2021/09/04 09:30:42;;;;;;;26.38;18.15;;;;;;;23.58;61.26;101014.16;5015191;28;20068;-60
2021/09/04 09:33:13;;;;;;;31.95;18.50;;;;;;;23.29;61.93;101024.44;5013512;28;20050;-58
2021/09/04 09:36:03;;;;;;;26.50;20.65;;;;;;;23.35;62.25;101022.88;5021204;28;20053;-60
2021/09/04 09:38:32;;;;;;;26.10;19.92;;;;;;;23.31;62.40;101022.03;5033368;28;20049;-60
2021/09/04 09:40:59;;;;;;;25.40;18.75;;;;;;;23.56;61.59;101022.19;5016446;28;20057;-61
2021/09/04 09:43:32;;;;;;;27.02;19.23;;;;;;;23.86;60.65;101024.75;5021582;28;20049;-59
2021/09/04 09:46:04;;;;;;;29.17;19.73;;;;;;;23.56;61.70;101022.19;5021559;28;20057;-61
2021/09/04 09:48:33;;;;;;;24.45;19.63;;;;;;;23.70;61.75;101016.63;5013318;28;20054;-61
2021/09/04 09:51:05;;;;;;;27.02;19.38;;;;;;;23.94;60.89;101026.38;5006160;28;20065;-64
2021/09/04 09:53:32;;;;;;;30.90;18.95;;;;;;;23.80;61.27;101018.69;5016061;28;20057;-64
2021/09/04 09:56:00;;;;;;;26.90;19.05;;;;;;;23.94;61.57;101010.31;5027006;28;20057;-64
2021/09/04 09:58:28;;;;;;;35.70;19.98;;;;;;;24.17;60.38;101022.06;5027248;28;20421;-65
2021/09/04 10:00:58;;;;;;;26.42;20.05;;;;;;;23.62;61.96;101011.38;5020755;28;20045;-61
2021/09/04 10:03:29;;;;;;;30.10;22.48;;;;;;;23.55;62.60;101008.53;5030015;28;20055;-61
2021/09/04 10:05:56;;;;;;;;;;;;;;;23.72;61.73;101004.97;5024453;28;20050;-60
2021/09/04 10:08:24;;;;;;;30.48;23.10;;;;;;;23.88;61.84;101011.09;5004035;28;19929;-63
2021/09/04 10:10:55;;;;;;;31.92;21.90;;;;;;;23.59;62.66;101004.53;5033974;28;20473;-61
2021/09/04 10:13:23;;;;;;;30.77;20.70;;;;;;;23.73;62.61;101001.00;5017689;28;20048;-66
2021/09/04 10:15:51;;;;;;;32.50;23.45;;;;;;;23.44;63.64;101000.03;5020563;28;20053;-64
2021/09/04 10:18:32;;;;;;;27.50;22.73;;;;;;;24.03;61.99;101005.13;5024116;28;20203;-65
2021/09/04 10:21:11;;;;;;;30.08;20.13;;;;;;;24.16;61.96;100997.94;5015210;28;20062;-65
2021/09/04 10:23:49;;;;;;;29.52;19.02;;;;;;;24.09;62.33;100999.94;5016793;28;20052;-61
2021/09/04 10:26:29;;;;;;;24.45;16.88;;;;;;;24.49;60.63;100994.78;5032429;28;20053;-60
2021/09/04 10:29:06;;;;;;;26.52;20.13;;;;;;;24.40;61.52;100997.19;5004269;28;20061;-59
2021/09/04 10:31:59;;;;;;;21.98;14.60;;;;;;;24.17;60.50;100991.09;5023658;28;20077;-61
2021/09/04 10:34:38;;;;;;;19.60;12.65;;;;;;;24.27;59.97;100995.94;5034226;28;20046;-64
2021/09/04 10:37:06;;;;;;;16.60;12.00;;;;;;;24.49;59.34;101000.44;5024472;28;20064;-63
2021/09/04 10:39:50;;;;;;;16.23;10.18;;;;;;;24.77;57.74;100999.66;5021361;28;20044;-64
2021/09/04 10:42:21;;;;;;;20.42;10.40;;;;;;;24.53;58.99;101004.03;5032625;28;20601;-64
2021/09/04 10:44:53;;;;;;;17.75;8.30;;;;;;;25.03;57.78;100992.78;5028758;28;20041;-64
2021/09/04 10:47:21;;;;;;;8.70;6.03;;;;;;;25.60;55.06;100991.47;5031913;28;20057;-61
2021/09/04 10:49:52;;;;;;;9.63;5.55;;;;;;;25.97;53.36;100994.53;5031918;28;20056;-61
2021/09/04 10:52:50;;;;;;;10.68;5.35;;;;;;;26.07;52.34;100996.53;5025557;28;20053;-60
2021/09/04 10:55:39;;;;;;;7.38;5.00;;;;;;;25.85;52.64;100989.38;5026185;28;20042;-62
2021/09/04 10:58:07;;;;;;;7.35;4.80;;;;;;;25.41;53.07;101001.22;5029556;28;20046;-65
2021/09/04 11:00:48;;;;;;;6.32;3.75;;;;;;;25.38;51.60;100992.75;5031402;28;20068;-60
2021/09/04 11:03:20;;;;;;;8.02;4.43;;;;;;;25.37;52.06;100996.78;5029396;28;20412;-61
2021/09/04 11:05:59;;;;;;;8.98;4.45;;;;;;;25.15;53.66;100983.91;5033206;28;20075;-59
2021/09/04 11:08:31;;;;;;;9.20;5.00;;;;;;;25.53;53.62;100981.03;5028845;28;20060;-61
2021/09/04 11:11:18;;;;;;;9.43;4.93;;;;;;;25.23;54.19;100980.66;5013554;28;20049;-60
2021/09/04 11:13:48;;;;;;;10.32;4.70;;;;;;;25.47;53.66;100981.84;5034141;28;20050;-60
2021/09/04 11:16:55;;;;;;;10.57;5.13;;;;;;;25.47;53.03;100977.00;5033372;28;20052;-61
2021/09/04 11:19:33;;;;;;;8.32;4.60;;;;;;;25.56;53.11;100973.75;5033105;28;20064;-61
2021/09/04 11:22:07;;;;;;;7.90;4.13;;;;;;;25.49;52.90;100980.22;4996445;28;20069;-61
2021/09/04 11:24:37;;;;;;;7.72;4.38;;;;;;;25.71;52.27;100972.50;5013162;28;20069;-60
2021/09/04 11:27:07;;;;;;;6.95;4.40;;;;;;;25.90;52.30;100976.81;5013465;28;20053;-61